sensor_id;sensor_type;location;lat;lon;timestamp;temperature;humidity
28823;DHT22;15961;54.678;9.110;2023-04-24T00:00:57;11.10;99.90
28823;DHT22;15961;54.678;9.110;2023-04-24T00:03:24;11.00;99.90
28823;DHT22;15961;54.678;9.110;2023-04-24T00:05:50;11.00;99.90
28823;DHT22;15961;54.678;9.110;2023-04-24T00:08:16;11.00;99.90
28823;DHT22;15961;54.678;9.110;2023-04-24T00:10:42;11.00;99.90
28823;DHT22;15961;54.678;9.110;2023-04-24T00:13:08;11.00;99.90
28823;DHT22;15961;54.678;9.110;2023-04-24T00:15:34;10.90;99.90
28823;DHT22;15961;54.678;9.110;2023-04-24T00:17:59;10.90;99.90
28823;DHT22;15961;54.678;9.110;2023-04-24T00:20:26;10.90;99.90
28823;DHT22;15961;54.678;9.110;2023-04-24T00:22:53;10.90;99.90
28823;DHT22;15961;54.678;9.110;2023-04-24T00:25:19;10.90;99.90
28823;DHT22;15961;54.678;9.110;2023-04-24T00:27:44;10.90;99.90
28823;DHT22;15961;54.678;9.110;2023-04-24T00:30:10;10.90;99.90
28823;DHT22;15961;54.678;9.110;2023-04-24T00:32:36;10.90;99.90
28823;DHT22;15961;54.678;9.110;2023-04-24T00:35:01;10.90;99.90
28823;DHT22;15961;54.678;9.110;2023-04-24T00:37:27;10.90;99.90
28823;DHT22;15961;54.678;9.110;2023-04-24T00:39:52;10.90;99.90
28823;DHT22;15961;54.678;9.110;2023-04-24T00:42:18;10.90;99.90
28823;DHT22;15961;54.678;9.110;2023-04-24T00:44:44;10.90;99.90
28823;DHT22;15961;54.678;9.110;2023-04-24T00:47:11;10.90;99.90
28823;DHT22;15961;54.678;9.110;2023-04-24T00:49:38;10.90;99.90
28823;DHT22;15961;54.678;9.110;2023-04-24T00:52:03;10.90;99.90
28823;DHT22;15961;54.678;9.110;2023-04-24T00:54:35;10.80;99.90
28823;DHT22;15961;54.678;9.110;2023-04-24T00:57:02;10.80;99.90
28823;DHT22;15961;54.678;9.110;2023-04-24T00:59:27;10.80;99.90
28823;DHT22;15961;54.678;9.110;2023-04-24T01:01:53;10.80;99.90
28823;DHT22;15961;54.678;9.110;2023-04-24T01:04:19;10.80;99.90
28823;DHT22;15961;54.678;9.110;2023-04-24T01:06:45;10.80;99.90
28823;DHT22;15961;54.678;9.110;2023-04-24T01:09:12;10.80;99.90
28823;DHT22;15961;54.678;9.110;2023-04-24T01:11:38;10.80;99.90
28823;DHT22;15961;54.678;9.110;2023-04-24T01:14:04;10.80;99.90
28823;DHT22;15961;54.678;9.110;2023-04-24T01:16:32;10.80;99.90
28823;DHT22;15961;54.678;9.110;2023-04-24T01:18:58;10.80;99.90
28823;DHT22;15961;54.678;9.110;2023-04-24T01:21:26;10.80;99.90
28823;DHT22;15961;54.678;9.110;2023-04-24T01:23:53;10.80;99.90
28823;DHT22;15961;54.678;9.110;2023-04-24T01:26:19;10.80;99.90
28823;DHT22;15961;54.678;9.110;2023-04-24T01:28:46;10.80;99.90
28823;DHT22;15961;54.678;9.110;2023-04-24T01:31:15;10.70;99.90
28823;DHT22;15961;54.678;9.110;2023-04-24T01:33:42;10.70;99.90
28823;DHT22;15961;54.678;9.110;2023-04-24T01:36:10;10.70;99.90
28823;DHT22;15961;54.678;9.110;2023-04-24T01:38:36;10.70;99.90
28823;DHT22;15961;54.678;9.110;2023-04-24T01:41:02;10.70;99.90
28823;DHT22;15961;54.678;9.110;2023-04-24T01:43:28;10.70;99.90
28823;DHT22;15961;54.678;9.110;2023-04-24T01:45:53;10.70;99.90
28823;DHT22;15961;54.678;9.110;2023-04-24T01:48:19;10.70;99.90
28823;DHT22;15961;54.678;9.110;2023-04-24T01:50:47;10.60;99.90
28823;DHT22;15961;54.678;9.110;2023-04-24T01:53:13;10.60;99.90
28823;DHT22;15961;54.678;9.110;2023-04-24T01:55:39;10.50;99.90
28823;DHT22;15961;54.678;9.110;2023-04-24T01:58:04;10.40;99.90
28823;DHT22;15961;54.678;9.110;2023-04-24T02:00:30;10.40;99.90
28823;DHT22;15961;54.678;9.110;2023-04-24T02:02:55;10.30;99.90
28823;DHT22;15961;54.678;9.110;2023-04-24T02:05:21;10.20;99.90
28823;DHT22;15961;54.678;9.110;2023-04-24T02:07:47;10.10;99.90
28823;DHT22;15961;54.678;9.110;2023-04-24T02:10:12;10.10;99.90
28823;DHT22;15961;54.678;9.110;2023-04-24T02:12:38;10.10;99.90
28823;DHT22;15961;54.678;9.110;2023-04-24T02:15:04;10.10;99.90
28823;DHT22;15961;54.678;9.110;2023-04-24T02:17:30;10.10;99.90
28823;DHT22;15961;54.678;9.110;2023-04-24T02:19:56;10.10;99.90
28823;DHT22;15961;54.678;9.110;2023-04-24T02:22:21;10.10;99.90
28823;DHT22;15961;54.678;9.110;2023-04-24T02:24:47;10.00;99.90
28823;DHT22;15961;54.678;9.110;2023-04-24T02:27:12;10.00;99.90
28823;DHT22;15961;54.678;9.110;2023-04-24T02:29:38;10.00;99.90
28823;DHT22;15961;54.678;9.110;2023-04-24T02:32:03;10.00;99.90
28823;DHT22;15961;54.678;9.110;2023-04-24T02:34:29;10.00;99.90
28823;DHT22;15961;54.678;9.110;2023-04-24T02:36:55;10.00;99.90
28823;DHT22;15961;54.678;9.110;2023-04-24T02:39:20;10.00;99.90
28823;DHT22;15961;54.678;9.110;2023-04-24T02:41:46;10.00;99.90
28823;DHT22;15961;54.678;9.110;2023-04-24T02:44:11;10.10;99.90
28823;DHT22;15961;54.678;9.110;2023-04-24T02:46:37;10.20;99.90
28823;DHT22;15961;54.678;9.110;2023-04-24T02:49:02;10.30;99.90
28823;DHT22;15961;54.678;9.110;2023-04-24T02:51:29;10.30;99.90
28823;DHT22;15961;54.678;9.110;2023-04-24T02:53:55;10.30;99.90
28823;DHT22;15961;54.678;9.110;2023-04-24T02:56:20;10.40;99.90
28823;DHT22;15961;54.678;9.110;2023-04-24T02:58:49;10.40;99.90
28823;DHT22;15961;54.678;9.110;2023-04-24T03:01:14;10.50;99.90
28823;DHT22;15961;54.678;9.110;2023-04-24T03:03:40;10.50;99.90
28823;DHT22;15961;54.678;9.110;2023-04-24T03:06:06;10.50;99.90
28823;DHT22;15961;54.678;9.110;2023-04-24T03:08:33;10.50;99.90
28823;DHT22;15961;54.678;9.110;2023-04-24T03:11:01;10.60;99.90
28823;DHT22;15961;54.678;9.110;2023-04-24T03:13:26;10.60;99.90
28823;DHT22;15961;54.678;9.110;2023-04-24T03:15:52;10.60;99.90
28823;DHT22;15961;54.678;9.110;2023-04-24T03:18:18;10.60;99.90
28823;DHT22;15961;54.678;9.110;2023-04-24T03:20:45;10.60;99.90
28823;DHT22;15961;54.678;9.110;2023-04-24T03:23:11;10.60;99.90
28823;DHT22;15961;54.678;9.110;2023-04-24T03:25:37;10.60;99.90
28823;DHT22;15961;54.678;9.110;2023-04-24T03:28:02;10.60;99.90
28823;DHT22;15961;54.678;9.110;2023-04-24T03:30:28;10.60;99.90
28823;DHT22;15961;54.678;9.110;2023-04-24T03:32:53;10.60;99.90
28823;DHT22;15961;54.678;9.110;2023-04-24T03:35:19;10.60;99.90
28823;DHT22;15961;54.678;9.110;2023-04-24T03:37:46;10.60;99.90
28823;DHT22;15961;54.678;9.110;2023-04-24T03:40:12;10.60;99.90
28823;DHT22;15961;54.678;9.110;2023-04-24T03:42:39;10.60;99.90
28823;DHT22;15961;54.678;9.110;2023-04-24T03:45:06;10.60;99.90
28823;DHT22;15961;54.678;9.110;2023-04-24T03:47:31;10.60;99.90
28823;DHT22;15961;54.678;9.110;2023-04-24T03:49:57;10.60;99.90
28823;DHT22;15961;54.678;9.110;2023-04-24T03:52:22;10.60;99.90
28823;DHT22;15961;54.678;9.110;2023-04-24T03:54:48;10.60;99.90
28823;DHT22;15961;54.678;9.110;2023-04-24T03:57:14;10.60;99.90
28823;DHT22;15961;54.678;9.110;2023-04-24T03:59:39;10.70;99.90
28823;DHT22;15961;54.678;9.110;2023-04-24T04:02:05;10.60;99.90
28823;DHT22;15961;54.678;9.110;2023-04-24T04:04:33;10.60;99.90
28823;DHT22;15961;54.678;9.110;2023-04-24T04:06:58;10.60;99.90
28823;DHT22;15961;54.678;9.110;2023-04-24T04:09:26;10.60;99.90
28823;DHT22;15961;54.678;9.110;2023-04-24T04:11:52;10.60;99.90
28823;DHT22;15961;54.678;9.110;2023-04-24T04:14:21;10.60;99.90
28823;DHT22;15961;54.678;9.110;2023-04-24T04:16:47;10.70;99.90
28823;DHT22;15961;54.678;9.110;2023-04-24T04:19:12;10.50;99.90
28823;DHT22;15961;54.678;9.110;2023-04-24T04:21:38;10.50;99.90
28823;DHT22;15961;54.678;9.110;2023-04-24T04:24:03;10.50;99.90
28823;DHT22;15961;54.678;9.110;2023-04-24T04:26:30;10.50;99.90
28823;DHT22;15961;54.678;9.110;2023-04-24T04:28:58;10.40;99.90
28823;DHT22;15961;54.678;9.110;2023-04-24T04:31:23;10.40;99.90
28823;DHT22;15961;54.678;9.110;2023-04-24T04:33:50;10.20;99.90
28823;DHT22;15961;54.678;9.110;2023-04-24T04:36:15;10.00;99.90
28823;DHT22;15961;54.678;9.110;2023-04-24T04:38:42;10.00;99.90
28823;DHT22;15961;54.678;9.110;2023-04-24T04:41:08;9.90;99.90
28823;DHT22;15961;54.678;9.110;2023-04-24T04:43:33;9.90;99.90
28823;DHT22;15961;54.678;9.110;2023-04-24T04:45:59;9.90;99.90
28823;DHT22;15961;54.678;9.110;2023-04-24T04:48:26;10.00;99.90
28823;DHT22;15961;54.678;9.110;2023-04-24T04:50:52;10.00;99.90
28823;DHT22;15961;54.678;9.110;2023-04-24T04:53:18;10.00;99.90
28823;DHT22;15961;54.678;9.110;2023-04-24T04:55:43;10.00;99.90
28823;DHT22;15961;54.678;9.110;2023-04-24T04:58:09;9.90;99.90
28823;DHT22;15961;54.678;9.110;2023-04-24T05:00:34;9.90;99.90
28823;DHT22;15961;54.678;9.110;2023-04-24T05:03:02;9.90;99.90
28823;DHT22;15961;54.678;9.110;2023-04-24T05:05:28;9.90;99.90
28823;DHT22;15961;54.678;9.110;2023-04-24T05:07:54;9.80;99.90
28823;DHT22;15961;54.678;9.110;2023-04-24T05:10:19;9.80;99.90
28823;DHT22;15961;54.678;9.110;2023-04-24T05:12:45;9.80;99.90
28823;DHT22;15961;54.678;9.110;2023-04-24T05:15:11;9.90;99.90
28823;DHT22;15961;54.678;9.110;2023-04-24T05:17:36;9.80;99.90
28823;DHT22;15961;54.678;9.110;2023-04-24T05:20:03;9.80;99.90
28823;DHT22;15961;54.678;9.110;2023-04-24T05:22:33;9.80;99.90
28823;DHT22;15961;54.678;9.110;2023-04-24T05:24:58;9.80;99.90
28823;DHT22;15961;54.678;9.110;2023-04-24T05:27:24;9.70;99.90
28823;DHT22;15961;54.678;9.110;2023-04-24T05:29:50;9.70;99.90
28823;DHT22;15961;54.678;9.110;2023-04-24T05:32:16;9.70;99.90
28823;DHT22;15961;54.678;9.110;2023-04-24T05:34:42;9.60;99.90
28823;DHT22;15961;54.678;9.110;2023-04-24T05:37:07;9.70;99.90
28823;DHT22;15961;54.678;9.110;2023-04-24T05:39:35;9.70;99.90
28823;DHT22;15961;54.678;9.110;2023-04-24T05:42:01;9.70;99.90
28823;DHT22;15961;54.678;9.110;2023-04-24T05:44:30;9.70;99.90
28823;DHT22;15961;54.678;9.110;2023-04-24T05:46:55;9.70;99.90
28823;DHT22;15961;54.678;9.110;2023-04-24T05:49:21;9.70;99.90
28823;DHT22;15961;54.678;9.110;2023-04-24T05:51:47;9.60;99.90
28823;DHT22;15961;54.678;9.110;2023-04-24T05:54:13;9.60;99.90
28823;DHT22;15961;54.678;9.110;2023-04-24T05:56:39;9.60;99.90
28823;DHT22;15961;54.678;9.110;2023-04-24T05:59:04;9.60;99.90
28823;DHT22;15961;54.678;9.110;2023-04-24T06:01:30;9.60;99.90
28823;DHT22;15961;54.678;9.110;2023-04-24T06:03:56;9.60;99.90
28823;DHT22;15961;54.678;9.110;2023-04-24T06:06:23;9.60;99.90
28823;DHT22;15961;54.678;9.110;2023-04-24T06:08:49;9.70;99.90
28823;DHT22;15961;54.678;9.110;2023-04-24T06:11:14;9.80;99.90
28823;DHT22;15961;54.678;9.110;2023-04-24T06:13:40;9.70;99.90
28823;DHT22;15961;54.678;9.110;2023-04-24T06:16:05;9.80;99.90
28823;DHT22;15961;54.678;9.110;2023-04-24T06:18:31;9.90;99.90
28823;DHT22;15961;54.678;9.110;2023-04-24T06:20:58;9.80;99.90
28823;DHT22;15961;54.678;9.110;2023-04-24T06:23:24;9.80;99.90
28823;DHT22;15961;54.678;9.110;2023-04-24T06:25:51;9.70;99.90
28823;DHT22;15961;54.678;9.110;2023-04-24T06:28:16;9.70;99.90
28823;DHT22;15961;54.678;9.110;2023-04-24T06:30:45;9.70;99.90
28823;DHT22;15961;54.678;9.110;2023-04-24T06:33:11;9.70;99.90
28823;DHT22;15961;54.678;9.110;2023-04-24T06:35:36;9.70;99.90
28823;DHT22;15961;54.678;9.110;2023-04-24T06:38:03;9.70;99.90
28823;DHT22;15961;54.678;9.110;2023-04-24T06:40:29;9.60;99.90
28823;DHT22;15961;54.678;9.110;2023-04-24T06:42:54;9.60;99.90
28823;DHT22;15961;54.678;9.110;2023-04-24T06:45:20;9.50;99.90
28823;DHT22;15961;54.678;9.110;2023-04-24T06:47:46;9.60;99.90
28823;DHT22;15961;54.678;9.110;2023-04-24T06:50:12;9.60;99.90
28823;DHT22;15961;54.678;9.110;2023-04-24T06:52:37;9.70;99.90
28823;DHT22;15961;54.678;9.110;2023-04-24T06:55:04;9.70;99.90
28823;DHT22;15961;54.678;9.110;2023-04-24T06:57:29;9.70;99.90
28823;DHT22;15961;54.678;9.110;2023-04-24T06:59:55;9.80;99.90
28823;DHT22;15961;54.678;9.110;2023-04-24T07:02:21;9.80;99.90
28823;DHT22;15961;54.678;9.110;2023-04-24T07:04:46;9.90;99.90
28823;DHT22;15961;54.678;9.110;2023-04-24T07:07:13;10.10;99.90
28823;DHT22;15961;54.678;9.110;2023-04-24T07:09:39;10.00;99.90
28823;DHT22;15961;54.678;9.110;2023-04-24T07:12:08;10.00;99.90
28823;DHT22;15961;54.678;9.110;2023-04-24T07:14:34;10.00;99.90
28823;DHT22;15961;54.678;9.110;2023-04-24T07:17:00;10.10;99.90
28823;DHT22;15961;54.678;9.110;2023-04-24T07:19:26;10.10;99.90
28823;DHT22;15961;54.678;9.110;2023-04-24T07:21:52;10.20;99.90
28823;DHT22;15961;54.678;9.110;2023-04-24T07:24:18;10.20;99.90
28823;DHT22;15961;54.678;9.110;2023-04-24T07:26:44;10.30;99.90
28823;DHT22;15961;54.678;9.110;2023-04-24T07:29:12;10.30;99.90
28823;DHT22;15961;54.678;9.110;2023-04-24T07:31:37;10.30;99.90
28823;DHT22;15961;54.678;9.110;2023-04-24T07:34:03;10.30;99.90
28823;DHT22;15961;54.678;9.110;2023-04-24T07:36:28;10.30;99.90
28823;DHT22;15961;54.678;9.110;2023-04-24T07:38:54;10.20;99.90
28823;DHT22;15961;54.678;9.110;2023-04-24T07:41:20;10.30;99.90
28823;DHT22;15961;54.678;9.110;2023-04-24T07:43:46;10.30;99.90
28823;DHT22;15961;54.678;9.110;2023-04-24T07:46:12;10.20;99.90
28823;DHT22;15961;54.678;9.110;2023-04-24T07:48:37;10.20;99.90
28823;DHT22;15961;54.678;9.110;2023-04-24T07:51:06;10.20;99.90
28823;DHT22;15961;54.678;9.110;2023-04-24T07:53:31;10.30;99.90
28823;DHT22;15961;54.678;9.110;2023-04-24T07:55:57;10.30;99.90
28823;DHT22;15961;54.678;9.110;2023-04-24T07:58:23;10.20;99.90
28823;DHT22;15961;54.678;9.110;2023-04-24T08:00:51;10.20;99.90
28823;DHT22;15961;54.678;9.110;2023-04-24T08:03:19;10.20;99.90
28823;DHT22;15961;54.678;9.110;2023-04-24T08:05:45;10.40;99.90
28823;DHT22;15961;54.678;9.110;2023-04-24T08:08:11;10.30;99.90
28823;DHT22;15961;54.678;9.110;2023-04-24T08:10:37;10.30;99.90
28823;DHT22;15961;54.678;9.110;2023-04-24T08:13:02;10.30;99.90
28823;DHT22;15961;54.678;9.110;2023-04-24T08:15:28;10.20;99.90
28823;DHT22;15961;54.678;9.110;2023-04-24T08:17:53;10.30;99.90
28823;DHT22;15961;54.678;9.110;2023-04-24T08:20:19;10.30;99.90
28823;DHT22;15961;54.678;9.110;2023-04-24T08:22:53;10.20;99.90
28823;DHT22;15961;54.678;9.110;2023-04-24T08:25:19;10.20;99.90
28823;DHT22;15961;54.678;9.110;2023-04-24T08:27:45;10.20;99.90
28823;DHT22;15961;54.678;9.110;2023-04-24T08:30:11;10.20;99.90
28823;DHT22;15961;54.678;9.110;2023-04-24T08:32:37;10.20;99.90
28823;DHT22;15961;54.678;9.110;2023-04-24T08:35:03;10.20;99.90
28823;DHT22;15961;54.678;9.110;2023-04-24T08:37:28;10.20;99.90
28823;DHT22;15961;54.678;9.110;2023-04-24T08:39:54;10.20;99.90
28823;DHT22;15961;54.678;9.110;2023-04-24T08:42:20;10.30;99.90
28823;DHT22;15961;54.678;9.110;2023-04-24T08:44:46;10.40;99.90
28823;DHT22;15961;54.678;9.110;2023-04-24T08:47:15;10.40;99.90
28823;DHT22;15961;54.678;9.110;2023-04-24T08:49:40;10.50;99.90
28823;DHT22;15961;54.678;9.110;2023-04-24T08:52:06;10.60;99.90
28823;DHT22;15961;54.678;9.110;2023-04-24T08:54:34;10.60;99.90
28823;DHT22;15961;54.678;9.110;2023-04-24T08:57:01;10.60;99.90
28823;DHT22;15961;54.678;9.110;2023-04-24T08:59:28;10.50;99.90
28823;DHT22;15961;54.678;9.110;2023-04-24T09:01:55;10.50;99.90
28823;DHT22;15961;54.678;9.110;2023-04-24T09:04:24;10.50;99.90
28823;DHT22;15961;54.678;9.110;2023-04-24T09:06:57;10.50;99.90
28823;DHT22;15961;54.678;9.110;2023-04-24T09:09:24;10.50;99.90
28823;DHT22;15961;54.678;9.110;2023-04-24T09:11:52;10.50;99.90
28823;DHT22;15961;54.678;9.110;2023-04-24T09:14:21;10.50;99.90
28823;DHT22;15961;54.678;9.110;2023-04-24T09:16:48;10.50;99.90
28823;DHT22;15961;54.678;9.110;2023-04-24T09:19:13;10.40;99.90
28823;DHT22;15961;54.678;9.110;2023-04-24T09:21:39;10.30;99.90
28823;DHT22;15961;54.678;9.110;2023-04-24T09:24:08;10.30;99.90
28823;DHT22;15961;54.678;9.110;2023-04-24T09:26:45;10.30;99.90
28823;DHT22;15961;54.678;9.110;2023-04-24T09:29:31;10.30;99.90
28823;DHT22;15961;54.678;9.110;2023-04-24T09:31:58;10.20;99.90
28823;DHT22;15961;54.678;9.110;2023-04-24T09:34:25;10.20;99.90
28823;DHT22;15961;54.678;9.110;2023-04-24T09:36:52;10.30;99.90
28823;DHT22;15961;54.678;9.110;2023-04-24T09:39:18;10.20;99.90
28823;DHT22;15961;54.678;9.110;2023-04-24T09:41:51;10.20;99.90
28823;DHT22;15961;54.678;9.110;2023-04-24T09:44:25;10.30;99.90
28823;DHT22;15961;54.678;9.110;2023-04-24T09:46:51;10.30;99.90
28823;DHT22;15961;54.678;9.110;2023-04-24T09:49:23;10.40;99.90
28823;DHT22;15961;54.678;9.110;2023-04-24T09:51:49;10.30;99.90
28823;DHT22;15961;54.678;9.110;2023-04-24T09:54:17;10.30;99.90
28823;DHT22;15961;54.678;9.110;2023-04-24T09:56:44;10.20;99.90
28823;DHT22;15961;54.678;9.110;2023-04-24T09:59:11;10.20;99.90
28823;DHT22;15961;54.678;9.110;2023-04-24T10:01:37;10.20;99.90
28823;DHT22;15961;54.678;9.110;2023-04-24T10:04:04;10.20;99.90
28823;DHT22;15961;54.678;9.110;2023-04-24T10:06:35;10.20;99.90
28823;DHT22;15961;54.678;9.110;2023-04-24T10:09:02;10.30;99.90
28823;DHT22;15961;54.678;9.110;2023-04-24T10:11:29;10.30;99.90
28823;DHT22;15961;54.678;9.110;2023-04-24T10:13:56;10.40;99.90
28823;DHT22;15961;54.678;9.110;2023-04-24T10:16:23;10.50;99.90
28823;DHT22;15961;54.678;9.110;2023-04-24T10:18:49;10.50;99.90
28823;DHT22;15961;54.678;9.110;2023-04-24T10:21:15;10.50;99.90
28823;DHT22;15961;54.678;9.110;2023-04-24T10:23:42;10.50;99.90
28823;DHT22;15961;54.678;9.110;2023-04-24T10:26:12;10.50;99.90
28823;DHT22;15961;54.678;9.110;2023-04-24T10:28:46;10.60;99.90
28823;DHT22;15961;54.678;9.110;2023-04-24T10:31:14;10.60;99.90
28823;DHT22;15961;54.678;9.110;2023-04-24T10:33:42;10.80;99.90
28823;DHT22;15961;54.678;9.110;2023-04-24T10:36:10;10.80;99.90
28823;DHT22;15961;54.678;9.110;2023-04-24T10:38:38;10.90;99.90
28823;DHT22;15961;54.678;9.110;2023-04-24T10:41:10;10.90;99.90
28823;DHT22;15961;54.678;9.110;2023-04-24T10:43:41;11.10;99.90
28823;DHT22;15961;54.678;9.110;2023-04-24T10:46:08;11.20;99.90
28823;DHT22;15961;54.678;9.110;2023-04-24T10:48:35;11.20;99.90
28823;DHT22;15961;54.678;9.110;2023-04-24T10:51:01;11.20;99.90
28823;DHT22;15961;54.678;9.110;2023-04-24T10:53:29;11.10;99.90
28823;DHT22;15961;54.678;9.110;2023-04-24T10:58:24;11.10;99.90
28823;DHT22;15961;54.678;9.110;2023-04-24T11:00:59;11.20;99.90
28823;DHT22;15961;54.678;9.110;2023-04-24T11:03:28;11.30;99.90
28823;DHT22;15961;54.678;9.110;2023-04-24T11:06:03;11.30;99.90
28823;DHT22;15961;54.678;9.110;2023-04-24T11:08:43;11.30;99.90
28823;DHT22;15961;54.678;9.110;2023-04-24T11:11:13;11.40;99.90
28823;DHT22;15961;54.678;9.110;2023-04-24T11:16:21;11.60;99.90
28823;DHT22;15961;54.678;9.110;2023-04-24T11:19:07;11.60;99.90
28823;DHT22;15961;54.678;9.110;2023-04-24T11:21:47;12.00;99.90
28823;DHT22;15961;54.678;9.110;2023-04-24T11:24:48;12.70;99.90
28823;DHT22;15961;54.678;9.110;2023-04-24T11:27:18;12.90;99.90
28823;DHT22;15961;54.678;9.110;2023-04-24T11:32:27;12.50;99.90
28823;DHT22;15961;54.678;9.110;2023-04-24T11:35:01;12.20;99.90
28823;DHT22;15961;54.678;9.110;2023-04-24T11:37:35;12.20;99.90
28823;DHT22;15961;54.678;9.110;2023-04-24T11:40:02;12.10;99.90
28823;DHT22;15961;54.678;9.110;2023-04-24T11:42:36;11.90;99.90
28823;DHT22;15961;54.678;9.110;2023-04-24T11:45:06;11.80;99.90
28823;DHT22;15961;54.678;9.110;2023-04-24T11:47:32;11.60;99.90
28823;DHT22;15961;54.678;9.110;2023-04-24T11:50:02;11.60;99.90
28823;DHT22;15961;54.678;9.110;2023-04-24T11:52:28;11.50;99.90
28823;DHT22;15961;54.678;9.110;2023-04-24T11:54:54;11.40;99.90
28823;DHT22;15961;54.678;9.110;2023-04-24T11:57:21;11.50;99.90
28823;DHT22;15961;54.678;9.110;2023-04-24T11:59:47;11.50;99.90
28823;DHT22;15961;54.678;9.110;2023-04-24T12:02:26;11.50;99.90
28823;DHT22;15961;54.678;9.110;2023-04-24T12:04:53;11.50;99.90
28823;DHT22;15961;54.678;9.110;2023-04-24T12:07:18;11.50;99.90
28823;DHT22;15961;54.678;9.110;2023-04-24T12:09:47;11.40;99.90
28823;DHT22;15961;54.678;9.110;2023-04-24T12:12:17;11.30;99.90
28823;DHT22;15961;54.678;9.110;2023-04-24T12:14:51;11.10;99.90
28823;DHT22;15961;54.678;9.110;2023-04-24T12:17:17;11.00;99.90
28823;DHT22;15961;54.678;9.110;2023-04-24T12:19:51;11.00;99.90
28823;DHT22;15961;54.678;9.110;2023-04-24T12:22:17;10.80;99.90
28823;DHT22;15961;54.678;9.110;2023-04-24T12:25:02;10.80;99.90
28823;DHT22;15961;54.678;9.110;2023-04-24T12:27:31;10.70;99.90
28823;DHT22;15961;54.678;9.110;2023-04-24T12:30:01;10.80;99.90
28823;DHT22;15961;54.678;9.110;2023-04-24T12:32:26;10.80;99.90
28823;DHT22;15961;54.678;9.110;2023-04-24T12:34:53;10.80;99.90
28823;DHT22;15961;54.678;9.110;2023-04-24T12:37:19;11.00;99.90
28823;DHT22;15961;54.678;9.110;2023-04-24T12:40:05;11.10;99.90
28823;DHT22;15961;54.678;9.110;2023-04-24T12:42:34;11.30;99.90
28823;DHT22;15961;54.678;9.110;2023-04-24T12:45:04;11.60;99.90
28823;DHT22;15961;54.678;9.110;2023-04-24T12:47:32;11.70;99.90
28823;DHT22;15961;54.678;9.110;2023-04-24T12:49:57;11.80;99.90
28823;DHT22;15961;54.678;9.110;2023-04-24T12:52:24;11.90;99.90
28823;DHT22;15961;54.678;9.110;2023-04-24T12:54:53;12.00;99.90
28823;DHT22;15961;54.678;9.110;2023-04-24T12:57:19;12.20;99.90
28823;DHT22;15961;54.678;9.110;2023-04-24T12:59:44;12.30;99.90
28823;DHT22;15961;54.678;9.110;2023-04-24T13:02:11;12.30;99.90
28823;DHT22;15961;54.678;9.110;2023-04-24T13:04:36;12.30;99.90
28823;DHT22;15961;54.678;9.110;2023-04-24T13:07:05;12.10;99.90
28823;DHT22;15961;54.678;9.110;2023-04-24T13:09:31;12.10;99.90
28823;DHT22;15961;54.678;9.110;2023-04-24T13:11:59;12.10;99.90
28823;DHT22;15961;54.678;9.110;2023-04-24T13:14:26;12.00;99.90
28823;DHT22;15961;54.678;9.110;2023-04-24T13:16:51;11.90;99.90
28823;DHT22;15961;54.678;9.110;2023-04-24T13:19:29;11.70;99.90
28823;DHT22;15961;54.678;9.110;2023-04-24T13:21:56;11.50;99.90
28823;DHT22;15961;54.678;9.110;2023-04-24T13:24:23;11.40;99.90
28823;DHT22;15961;54.678;9.110;2023-04-24T13:26:52;11.30;99.90
28823;DHT22;15961;54.678;9.110;2023-04-24T13:29:18;11.20;99.90
28823;DHT22;15961;54.678;9.110;2023-04-24T13:31:44;11.20;99.90
28823;DHT22;15961;54.678;9.110;2023-04-24T13:34:10;11.20;99.90
28823;DHT22;15961;54.678;9.110;2023-04-24T13:36:35;11.40;99.90
28823;DHT22;15961;54.678;9.110;2023-04-24T13:39:02;11.50;99.90
28823;DHT22;15961;54.678;9.110;2023-04-24T13:41:29;11.60;99.90
28823;DHT22;15961;54.678;9.110;2023-04-24T13:43:58;11.60;99.90
28823;DHT22;15961;54.678;9.110;2023-04-24T13:46:23;11.40;99.90
28823;DHT22;15961;54.678;9.110;2023-04-24T13:48:49;11.40;99.90
28823;DHT22;15961;54.678;9.110;2023-04-24T13:51:14;11.40;99.90
28823;DHT22;15961;54.678;9.110;2023-04-24T13:53:40;11.30;99.90
28823;DHT22;15961;54.678;9.110;2023-04-24T13:56:06;11.20;99.90
28823;DHT22;15961;54.678;9.110;2023-04-24T13:58:34;11.10;99.90
28823;DHT22;15961;54.678;9.110;2023-04-24T14:01:02;11.20;99.90
28823;DHT22;15961;54.678;9.110;2023-04-24T14:03:28;11.20;99.90
28823;DHT22;15961;54.678;9.110;2023-04-24T14:05:54;11.20;99.90
28823;DHT22;15961;54.678;9.110;2023-04-24T14:08:20;11.10;99.90
28823;DHT22;15961;54.678;9.110;2023-04-24T14:10:45;11.00;99.90
28823;DHT22;15961;54.678;9.110;2023-04-24T14:13:11;10.90;99.90
28823;DHT22;15961;54.678;9.110;2023-04-24T14:15:37;10.80;99.90
28823;DHT22;15961;54.678;9.110;2023-04-24T14:18:05;10.80;99.90
28823;DHT22;15961;54.678;9.110;2023-04-24T14:20:31;10.80;99.90
28823;DHT22;15961;54.678;9.110;2023-04-24T14:22:56;10.80;99.90
28823;DHT22;15961;54.678;9.110;2023-04-24T14:25:24;10.70;99.90
28823;DHT22;15961;54.678;9.110;2023-04-24T14:27:50;10.70;99.90
28823;DHT22;15961;54.678;9.110;2023-04-24T14:30:15;10.70;99.90
28823;DHT22;15961;54.678;9.110;2023-04-24T14:32:41;10.70;99.90
28823;DHT22;15961;54.678;9.110;2023-04-24T14:35:07;10.70;99.90
28823;DHT22;15961;54.678;9.110;2023-04-24T14:37:33;10.70;99.90
28823;DHT22;15961;54.678;9.110;2023-04-24T14:39:58;10.70;99.90
28823;DHT22;15961;54.678;9.110;2023-04-24T14:42:24;10.70;99.90
28823;DHT22;15961;54.678;9.110;2023-04-24T14:44:50;10.60;99.90
28823;DHT22;15961;54.678;9.110;2023-04-24T14:47:15;10.60;99.90
28823;DHT22;15961;54.678;9.110;2023-04-24T14:49:43;10.70;99.90
28823;DHT22;15961;54.678;9.110;2023-04-24T14:52:09;10.60;99.90
28823;DHT22;15961;54.678;9.110;2023-04-24T14:54:37;10.60;99.90
28823;DHT22;15961;54.678;9.110;2023-04-24T14:57:02;10.60;99.90
28823;DHT22;15961;54.678;9.110;2023-04-24T14:59:28;10.40;99.90
28823;DHT22;15961;54.678;9.110;2023-04-24T15:01:54;10.30;99.90
28823;DHT22;15961;54.678;9.110;2023-04-24T15:04:25;10.30;99.90
28823;DHT22;15961;54.678;9.110;2023-04-24T15:06:52;10.20;99.90
28823;DHT22;15961;54.678;9.110;2023-04-24T15:09:19;10.20;99.90
28823;DHT22;15961;54.678;9.110;2023-04-24T15:11:44;10.20;99.90
28823;DHT22;15961;54.678;9.110;2023-04-24T15:14:10;10.10;99.90
28823;DHT22;15961;54.678;9.110;2023-04-24T15:16:36;10.10;99.90
28823;DHT22;15961;54.678;9.110;2023-04-24T15:19:01;10.00;99.90
28823;DHT22;15961;54.678;9.110;2023-04-24T15:21:27;9.90;99.90
28823;DHT22;15961;54.678;9.110;2023-04-24T15:23:52;9.80;99.90
28823;DHT22;15961;54.678;9.110;2023-04-24T15:26:18;9.70;99.90
28823;DHT22;15961;54.678;9.110;2023-04-24T15:28:44;9.70;99.90
28823;DHT22;15961;54.678;9.110;2023-04-24T15:31:11;9.60;99.90
28823;DHT22;15961;54.678;9.110;2023-04-24T15:33:37;9.60;99.90
28823;DHT22;15961;54.678;9.110;2023-04-24T15:36:03;9.40;99.90
28823;DHT22;15961;54.678;9.110;2023-04-24T15:38:29;9.40;99.90